Agonistis — SVBC3 — position and weather

sailwx.info

Track history (hours):
 
Tides and Currents Weather Stations Pressure Air Temp Water Temp Dewpoint Dewpoint Depression Visibility Wind Speed Wind Dir Waves Ship Positions

Agonistis

Last reported at 2017-Jul-16 05:33 UTC. Time now 2017-Jul-28 04:45 UTC.
Position N 01°18' E 103°21'.
Warning: this ship's position is 11 days out of date.

Length 196 m; draft 7 m.

Type: Cargo ship. MMSI: 241048000.

Date/timePositionNaut miles runAvg speedWind from/ knotsBaromVisibWave heightAir tempDewpointWater temp
2017-Jul-16 05:33N 01°18' E 103°21'0 9.7
2017-Jul-16 05:30N 01°18' E 103°21'510.2
2017-Jul-16 05:01N 01°14' E 103°25'610.8
2017-Jul-16 04:30N 01°13' E 103°30'511.0
2017-Jul-16 04:00N 01°12' E 103°36'510.4
2017-Jul-16 03:31N 01°11' E 103°41'5 9.2
2017-Jul-16 03:00N 01°09' E 103°45'4 8.3
2017-Jul-16 02:30N 01°11' E 103°49'4 8.4
2017-Jul-16 02:00N 01°12' E 103°52'4 7.9
2017-Jul-16 01:30N 01°14' E 103°56'2 3.8
2017-Jul-16 01:00N 01°16' E 103°57'1 2.3
2017-Jul-16 00:23N 01°17' E 103°58'0 0.0
2017-Jul-15 23:59N 01°17' E 103°58'0 0.0
2017-Jul-15 23:26N 01°17' E 103°58'0 0.0
2017-Jul-15 22:56N 01°17' E 103°58'0 0.0
2017-Jul-15 22:26N 01°17' E 103°58'0 0.0
2017-Jul-15 21:20N 01°17' E 103°58'0 0.0
2017-Jul-15 20:53N 01°17' E 103°58'0 0.0
2017-Jul-15 20:23N 01°17' E 103°58'0 0.0
2017-Jul-15 19:59N 01°17' E 103°58'0 0.0
2017-Jul-15 19:23N 01°17' E 103°58'0 0.0
2017-Jul-15 18:56N 01°17' E 103°58'0 0.0
2017-Jul-15 18:14N 01°17' E 103°58'0 0.2
2017-Jul-15 17:53N 01°17' E 103°58'0 0.0
2017-Jul-15 17:23N 01°17' E 103°58'0 0.0
2017-Jul-15 16:56N 01°17' E 103°58'0 0.0
2017-Jul-15 16:20N 01°17' E 103°58'0 0.0
2017-Jul-15 15:53N 01°17' E 103°58'0 0.0
2017-Jul-15 15:29N 01°17' E 103°58'0 0.0
2017-Jul-15 14:53N 01°17' E 103°58'0 0.0
2017-Jul-15 13:50N 01°17' E 103°58'0 0.2
2017-Jul-15 13:29N 01°17' E 103°58'0 0.0
2017-Jul-15 12:56N 01°17' E 103°58'0 0.0
2017-Jul-15 12:29N 01°17' E 103°58'0 0.1
2017-Jul-15 11:41N 01°17' E 103°58'0 0.0
2017-Jul-15 11:11N 01°17' E 103°58'0 0.3
2017-Jul-15 10:59N 01°17' E 103°58'0 0.0
2017-Jul-15 10:05N 01°17' E 103°58'0 0.0
2017-Jul-15 09:53N 01°17' E 103°58'0 0.0
2017-Jul-15 08:38N 01°17' E 103°58'0 0.0
2017-Jul-15 08:26N 01°17' E 103°58'0 0.0
2017-Jul-15 07:59N 01°17' E 103°58'0 0.1
2017-Jul-15 07:29N 01°17' E 103°58'0 0.1
2017-Jul-15 06:59N 01°17' E 103°58'0 0.0
2017-Jul-15 05:41N 01°17' E 103°58'0 0.0
2017-Jul-15 05:26N 01°17' E 103°58'0 0.0
2017-Jul-15 04:47N 01°17' E 103°58'0 0.0
2017-Jul-15 04:17N 01°17' E 103°58'0 0.2
2017-Jul-15 03:59N 01°17' E 103°58'2 3.4
2017-Jul-15 03:30N 01°16' E 103°59'1 1.7
2017-Jul-15 03:00N 01°16' E 103°60'3 4.5
2017-Jul-15 02:26N 01°16' E 104°02'  
Track history (hours):
 
Tides and Currents Weather Stations Pressure Air Temp Water Temp Dewpoint Dewpoint Depression Visibility Wind Speed Wind Dir Waves Ship Positions

Agonistis

Last reported at 2017-Jul-16 05:33 UTC. Time now 2017-Jul-28 04:45 UTC.
Position N 01°18' E 103°21'.
Warning: this ship's position is 11 days out of date.

Length 196 m; draft 7 m.

Type: Cargo ship. MMSI: 241048000.

Date/timePositionNaut miles runAvg speedWind from/ knotsBaromVisibWave heightAir tempDewpointWater temp
2017-Jul-16 05:33N 01°18' E 103°21'0 9.7
2017-Jul-16 05:30N 01°18' E 103°21'510.2
2017-Jul-16 05:01N 01°14' E 103°25'610.8
2017-Jul-16 04:30N 01°13' E 103°30'511.0
2017-Jul-16 04:00N 01°12' E 103°36'510.4
2017-Jul-16 03:31N 01°11' E 103°41'5 9.2
2017-Jul-16 03:00N 01°09' E 103°45'4 8.3
2017-Jul-16 02:30N 01°11' E 103°49'4 8.4
2017-Jul-16 02:00N 01°12' E 103°52'4 7.9
2017-Jul-16 01:30N 01°14' E 103°56'2 3.8
2017-Jul-16 01:00N 01°16' E 103°57'1 2.3
2017-Jul-16 00:23N 01°17' E 103°58'0 0.0
2017-Jul-15 23:59N 01°17' E 103°58'0 0.0
2017-Jul-15 23:26N 01°17' E 103°58'0 0.0
2017-Jul-15 22:56N 01°17' E 103°58'0 0.0
2017-Jul-15 22:26N 01°17' E 103°58'0 0.0
2017-Jul-15 21:20N 01°17' E 103°58'0 0.0
2017-Jul-15 20:53N 01°17' E 103°58'0 0.0
2017-Jul-15 20:23N 01°17' E 103°58'0 0.0
2017-Jul-15 19:59N 01°17' E 103°58'0 0.0
2017-Jul-15 19:23N 01°17' E 103°58'0 0.0
2017-Jul-15 18:56N 01°17' E 103°58'0 0.0
2017-Jul-15 18:14N 01°17' E 103°58'0 0.2
2017-Jul-15 17:53N 01°17' E 103°58'0 0.0
2017-Jul-15 17:23N 01°17' E 103°58'0 0.0
2017-Jul-15 16:56N 01°17' E 103°58'0 0.0
2017-Jul-15 16:20N 01°17' E 103°58'0 0.0
2017-Jul-15 15:53N 01°17' E 103°58'0 0.0
2017-Jul-15 15:29N 01°17' E 103°58'0 0.0
2017-Jul-15 14:53N 01°17' E 103°58'0 0.0
2017-Jul-15 13:50N 01°17' E 103°58'0 0.2
2017-Jul-15 13:29N 01°17' E 103°58'0 0.0
2017-Jul-15 12:56N 01°17' E 103°58'0 0.0
2017-Jul-15 12:29N 01°17' E 103°58'0 0.1
2017-Jul-15 11:41N 01°17' E 103°58'0 0.0
2017-Jul-15 11:11N 01°17' E 103°58'0 0.3
2017-Jul-15 10:59N 01°17' E 103°58'0 0.0
2017-Jul-15 10:05N 01°17' E 103°58'0 0.0
2017-Jul-15 09:53N 01°17' E 103°58'0 0.0
2017-Jul-15 08:38N 01°17' E 103°58'0 0.0
2017-Jul-15 08:26N 01°17' E 103°58'0 0.0
2017-Jul-15 07:59N 01°17' E 103°58'0 0.1
2017-Jul-15 07:29N 01°17' E 103°58'0 0.1
2017-Jul-15 06:59N 01°17' E 103°58'0 0.0
2017-Jul-15 05:41N 01°17' E 103°58'0 0.0
2017-Jul-15 05:26N 01°17' E 103°58'0 0.0
2017-Jul-15 04:47N 01°17' E 103°58'0 0.0
2017-Jul-15 04:17N 01°17' E 103°58'0 0.2
2017-Jul-15 03:59N 01°17' E 103°58'2 3.4
2017-Jul-15 03:30N 01°16' E 103°59'1 1.7
2017-Jul-15 03:00N 01°16' E 103°60'3 4.5
2017-Jul-15 02:26N 01°16' E 104°02'  

Dump ship's entire track history